sensor_id;sensor_type;location;lat;lon;timestamp;temperature;humidity
15535;DHT22;7869;49.264;8.596;2022-10-16T00:02:19;16.20;99.90
15535;DHT22;7869;49.264;8.596;2022-10-16T00:04:45;16.20;99.90
15535;DHT22;7869;49.264;8.596;2022-10-16T00:07:10;16.20;99.90
15535;DHT22;7869;49.264;8.596;2022-10-16T00:09:36;16.20;99.90
15535;DHT22;7869;49.264;8.596;2022-10-16T00:12:02;16.20;99.90
15535;DHT22;7869;49.264;8.596;2022-10-16T00:14:29;16.20;99.90
15535;DHT22;7869;49.264;8.596;2022-10-16T00:16:55;16.20;99.90
15535;DHT22;7869;49.264;8.596;2022-10-16T00:19:20;16.20;99.90
15535;DHT22;7869;49.264;8.596;2022-10-16T00:21:46;16.20;99.90
15535;DHT22;7869;49.264;8.596;2022-10-16T00:24:12;16.20;99.90
15535;DHT22;7869;49.264;8.596;2022-10-16T00:26:38;16.20;99.90
15535;DHT22;7869;49.264;8.596;2022-10-16T00:29:04;16.10;99.90
15535;DHT22;7869;49.264;8.596;2022-10-16T00:31:30;16.10;99.90
15535;DHT22;7869;49.264;8.596;2022-10-16T00:33:56;16.10;99.90
15535;DHT22;7869;49.264;8.596;2022-10-16T00:36:24;16.10;99.90
15535;DHT22;7869;49.264;8.596;2022-10-16T00:38:54;16.10;99.90
15535;DHT22;7869;49.264;8.596;2022-10-16T00:41:21;16.00;99.90
15535;DHT22;7869;49.264;8.596;2022-10-16T00:43:53;16.00;99.90
15535;DHT22;7869;49.264;8.596;2022-10-16T00:49:16;16.10;99.90
15535;DHT22;7869;49.264;8.596;2022-10-16T00:51:51;16.00;99.90
15535;DHT22;7869;49.264;8.596;2022-10-16T00:54:23;16.00;99.90
15535;DHT22;7869;49.264;8.596;2022-10-16T00:56:50;16.00;99.90
15535;DHT22;7869;49.264;8.596;2022-10-16T00:59:19;16.00;99.90
15535;DHT22;7869;49.264;8.596;2022-10-16T01:01:45;16.10;99.90
15535;DHT22;7869;49.264;8.596;2022-10-16T01:04:11;16.10;99.90
15535;DHT22;7869;49.264;8.596;2022-10-16T01:06:51;16.10;99.90
15535;DHT22;7869;49.264;8.596;2022-10-16T01:09:34;16.10;99.90
15535;DHT22;7869;49.264;8.596;2022-10-16T01:12:23;16.00;99.90
15535;DHT22;7869;49.264;8.596;2022-10-16T01:15:08;16.00;99.90
15535;DHT22;7869;49.264;8.596;2022-10-16T01:17:44;16.00;99.90
15535;DHT22;7869;49.264;8.596;2022-10-16T01:20:13;16.00;99.90
15535;DHT22;7869;49.264;8.596;2022-10-16T01:22:59;16.10;99.90
15535;DHT22;7869;49.264;8.596;2022-10-16T01:25:49;16.10;99.90
15535;DHT22;7869;49.264;8.596;2022-10-16T01:28:19;16.00;99.90
15535;DHT22;7869;49.264;8.596;2022-10-16T01:30:48;16.00;99.90
15535;DHT22;7869;49.264;8.596;2022-10-16T01:33:21;16.00;99.90
15535;DHT22;7869;49.264;8.596;2022-10-16T01:35:53;15.90;99.90
15535;DHT22;7869;49.264;8.596;2022-10-16T01:38:35;15.90;99.90
15535;DHT22;7869;49.264;8.596;2022-10-16T01:43:47;15.80;99.90
15535;DHT22;7869;49.264;8.596;2022-10-16T01:46:17;15.70;99.90
15535;DHT22;7869;49.264;8.596;2022-10-16T01:48:43;15.70;99.90
15535;DHT22;7869;49.264;8.596;2022-10-16T01:51:12;15.70;99.90
15535;DHT22;7869;49.264;8.596;2022-10-16T01:53:40;15.70;99.90
15535;DHT22;7869;49.264;8.596;2022-10-16T01:56:09;15.70;99.90
15535;DHT22;7869;49.264;8.596;2022-10-16T01:58:42;15.70;99.90
15535;DHT22;7869;49.264;8.596;2022-10-16T02:01:11;15.60;99.90
15535;DHT22;7869;49.264;8.596;2022-10-16T02:03:42;15.70;99.90
15535;DHT22;7869;49.264;8.596;2022-10-16T02:06:08;15.70;99.90
15535;DHT22;7869;49.264;8.596;2022-10-16T02:08:35;15.70;99.90
15535;DHT22;7869;49.264;8.596;2022-10-16T02:11:01;15.70;99.90
15535;DHT22;7869;49.264;8.596;2022-10-16T02:13:34;15.70;99.90
15535;DHT22;7869;49.264;8.596;2022-10-16T02:16:01;15.70;99.90
15535;DHT22;7869;49.264;8.596;2022-10-16T02:18:27;15.70;99.90
15535;DHT22;7869;49.264;8.596;2022-10-16T02:20:55;15.70;99.90
15535;DHT22;7869;49.264;8.596;2022-10-16T02:23:41;15.70;99.90
15535;DHT22;7869;49.264;8.596;2022-10-16T02:26:15;15.70;99.90
15535;DHT22;7869;49.264;8.596;2022-10-16T02:28:53;15.70;99.90
15535;DHT22;7869;49.264;8.596;2022-10-16T02:31:25;15.70;99.90
15535;DHT22;7869;49.264;8.596;2022-10-16T02:33:53;15.70;99.90
15535;DHT22;7869;49.264;8.596;2022-10-16T02:36:20;15.70;99.90
15535;DHT22;7869;49.264;8.596;2022-10-16T02:38:46;15.70;99.90
15535;DHT22;7869;49.264;8.596;2022-10-16T02:41:12;15.70;99.90
15535;DHT22;7869;49.264;8.596;2022-10-16T02:43:38;15.60;99.90
15535;DHT22;7869;49.264;8.596;2022-10-16T02:46:03;15.50;99.90
15535;DHT22;7869;49.264;8.596;2022-10-16T02:48:29;15.50;99.90
15535;DHT22;7869;49.264;8.596;2022-10-16T02:50:55;15.40;99.90
15535;DHT22;7869;49.264;8.596;2022-10-16T02:53:20;15.40;99.90
15535;DHT22;7869;49.264;8.596;2022-10-16T02:55:46;15.40;99.90
15535;DHT22;7869;49.264;8.596;2022-10-16T02:58:11;15.40;99.90
15535;DHT22;7869;49.264;8.596;2022-10-16T03:00:37;15.40;99.90
15535;DHT22;7869;49.264;8.596;2022-10-16T03:03:02;15.40;99.90
15535;DHT22;7869;49.264;8.596;2022-10-16T03:05:28;15.40;99.90
15535;DHT22;7869;49.264;8.596;2022-10-16T03:07:54;15.30;99.90
15535;DHT22;7869;49.264;8.596;2022-10-16T03:10:19;15.30;99.90
15535;DHT22;7869;49.264;8.596;2022-10-16T03:12:45;15.30;99.90
15535;DHT22;7869;49.264;8.596;2022-10-16T03:15:10;15.30;99.90
15535;DHT22;7869;49.264;8.596;2022-10-16T03:17:36;15.30;99.90
15535;DHT22;7869;49.264;8.596;2022-10-16T03:20:02;15.30;99.90
15535;DHT22;7869;49.264;8.596;2022-10-16T03:22:27;15.30;99.90
15535;DHT22;7869;49.264;8.596;2022-10-16T03:24:53;15.30;99.90
15535;DHT22;7869;49.264;8.596;2022-10-16T03:27:18;15.40;99.90
15535;DHT22;7869;49.264;8.596;2022-10-16T03:29:44;15.30;99.90
15535;DHT22;7869;49.264;8.596;2022-10-16T03:32:09;15.30;99.90
15535;DHT22;7869;49.264;8.596;2022-10-16T03:34:35;15.30;99.90
15535;DHT22;7869;49.264;8.596;2022-10-16T03:37:00;15.30;99.90
15535;DHT22;7869;49.264;8.596;2022-10-16T03:39:26;15.30;99.90
15535;DHT22;7869;49.264;8.596;2022-10-16T03:41:52;15.40;99.90
15535;DHT22;7869;49.264;8.596;2022-10-16T03:44:18;15.30;99.90
15535;DHT22;7869;49.264;8.596;2022-10-16T03:46:43;15.30;99.90
15535;DHT22;7869;49.264;8.596;2022-10-16T03:49:09;15.40;99.90
15535;DHT22;7869;49.264;8.596;2022-10-16T03:51:34;15.30;99.90
15535;DHT22;7869;49.264;8.596;2022-10-16T03:54:00;15.40;99.90
15535;DHT22;7869;49.264;8.596;2022-10-16T03:56:25;15.40;99.90
15535;DHT22;7869;49.264;8.596;2022-10-16T03:58:51;15.40;99.90
15535;DHT22;7869;49.264;8.596;2022-10-16T04:01:17;15.40;99.90
15535;DHT22;7869;49.264;8.596;2022-10-16T04:03:42;15.40;99.90
15535;DHT22;7869;49.264;8.596;2022-10-16T04:06:08;15.40;99.90
15535;DHT22;7869;49.264;8.596;2022-10-16T04:08:34;15.40;99.90
15535;DHT22;7869;49.264;8.596;2022-10-16T04:11:02;15.40;99.90
15535;DHT22;7869;49.264;8.596;2022-10-16T04:13:28;15.40;99.90
15535;DHT22;7869;49.264;8.596;2022-10-16T04:15:54;15.40;99.90
15535;DHT22;7869;49.264;8.596;2022-10-16T04:18:19;15.40;99.90
15535;DHT22;7869;49.264;8.596;2022-10-16T04:20:45;15.40;99.90
15535;DHT22;7869;49.264;8.596;2022-10-16T04:23:10;15.40;99.90
15535;DHT22;7869;49.264;8.596;2022-10-16T04:25:36;15.40;99.90
15535;DHT22;7869;49.264;8.596;2022-10-16T04:28:02;15.40;99.90
15535;DHT22;7869;49.264;8.596;2022-10-16T04:30:27;15.40;99.90
15535;DHT22;7869;49.264;8.596;2022-10-16T04:32:53;15.40;99.90
15535;DHT22;7869;49.264;8.596;2022-10-16T04:35:20;15.40;99.90
15535;DHT22;7869;49.264;8.596;2022-10-16T04:37:45;15.30;99.90
15535;DHT22;7869;49.264;8.596;2022-10-16T04:40:11;15.40;99.90
15535;DHT22;7869;49.264;8.596;2022-10-16T04:42:37;15.40;99.90
15535;DHT22;7869;49.264;8.596;2022-10-16T04:45:04;15.40;99.90
15535;DHT22;7869;49.264;8.596;2022-10-16T04:47:30;15.40;99.90
15535;DHT22;7869;49.264;8.596;2022-10-16T04:49:56;15.30;99.90
15535;DHT22;7869;49.264;8.596;2022-10-16T04:52:22;15.30;99.90
15535;DHT22;7869;49.264;8.596;2022-10-16T04:54:50;15.20;99.90
15535;DHT22;7869;49.264;8.596;2022-10-16T04:57:16;15.20;99.90
15535;DHT22;7869;49.264;8.596;2022-10-16T04:59:41;15.20;99.90
15535;DHT22;7869;49.264;8.596;2022-10-16T05:02:07;15.20;99.90
15535;DHT22;7869;49.264;8.596;2022-10-16T05:04:33;15.20;99.90
15535;DHT22;7869;49.264;8.596;2022-10-16T05:06:58;15.20;99.90
15535;DHT22;7869;49.264;8.596;2022-10-16T05:09:24;15.10;99.90
15535;DHT22;7869;49.264;8.596;2022-10-16T05:11:49;15.10;99.90
15535;DHT22;7869;49.264;8.596;2022-10-16T05:14:15;15.10;99.90
15535;DHT22;7869;49.264;8.596;2022-10-16T05:16:40;15.00;99.90
15535;DHT22;7869;49.264;8.596;2022-10-16T05:19:06;15.00;99.90
15535;DHT22;7869;49.264;8.596;2022-10-16T05:21:32;15.10;99.90
15535;DHT22;7869;49.264;8.596;2022-10-16T05:23:57;15.10;99.90
15535;DHT22;7869;49.264;8.596;2022-10-16T05:26:23;15.10;99.90
15535;DHT22;7869;49.264;8.596;2022-10-16T05:28:49;15.10;99.90
15535;DHT22;7869;49.264;8.596;2022-10-16T05:31:15;15.10;99.90
15535;DHT22;7869;49.264;8.596;2022-10-16T05:33:40;15.20;99.90
15535;DHT22;7869;49.264;8.596;2022-10-16T05:36:08;15.10;99.90
15535;DHT22;7869;49.264;8.596;2022-10-16T05:38:35;15.10;99.90
15535;DHT22;7869;49.264;8.596;2022-10-16T05:41:01;15.20;99.90
15535;DHT22;7869;49.264;8.596;2022-10-16T05:43:28;15.10;99.90
15535;DHT22;7869;49.264;8.596;2022-10-16T05:45:58;15.10;99.90
15535;DHT22;7869;49.264;8.596;2022-10-16T05:48:25;15.20;99.90
15535;DHT22;7869;49.264;8.596;2022-10-16T05:51:02;15.20;99.90
15535;DHT22;7869;49.264;8.596;2022-10-16T05:53:29;15.20;99.90
15535;DHT22;7869;49.264;8.596;2022-10-16T05:55:55;15.20;99.90
15535;DHT22;7869;49.264;8.596;2022-10-16T05:58:22;15.20;99.90
15535;DHT22;7869;49.264;8.596;2022-10-16T06:00:59;15.20;99.90
15535;DHT22;7869;49.264;8.596;2022-10-16T06:03:25;15.30;99.90
15535;DHT22;7869;49.264;8.596;2022-10-16T06:05:51;15.30;99.90
15535;DHT22;7869;49.264;8.596;2022-10-16T06:08:18;15.30;99.90
15535;DHT22;7869;49.264;8.596;2022-10-16T06:10:44;15.30;99.90
15535;DHT22;7869;49.264;8.596;2022-10-16T06:13:11;15.40;99.90
15535;DHT22;7869;49.264;8.596;2022-10-16T06:15:37;15.40;99.90
15535;DHT22;7869;49.264;8.596;2022-10-16T06:18:04;15.40;99.90
15535;DHT22;7869;49.264;8.596;2022-10-16T06:20:30;15.40;99.90
15535;DHT22;7869;49.264;8.596;2022-10-16T06:22:56;15.40;99.90
15535;DHT22;7869;49.264;8.596;2022-10-16T06:25:22;15.40;99.90
15535;DHT22;7869;49.264;8.596;2022-10-16T06:27:47;15.40;99.90
15535;DHT22;7869;49.264;8.596;2022-10-16T06:30:13;15.40;99.90
15535;DHT22;7869;49.264;8.596;2022-10-16T06:32:39;15.40;99.90
15535;DHT22;7869;49.264;8.596;2022-10-16T06:35:04;15.40;99.90
15535;DHT22;7869;49.264;8.596;2022-10-16T06:37:30;15.40;99.90
15535;DHT22;7869;49.264;8.596;2022-10-16T06:39:55;15.40;99.90
15535;DHT22;7869;49.264;8.596;2022-10-16T06:42:21;15.40;99.90
15535;DHT22;7869;49.264;8.596;2022-10-16T06:44:47;15.40;99.90
15535;DHT22;7869;49.264;8.596;2022-10-16T06:47:12;15.50;99.90
15535;DHT22;7869;49.264;8.596;2022-10-16T06:49:38;15.50;99.90
15535;DHT22;7869;49.264;8.596;2022-10-16T06:52:03;15.50;99.90
15535;DHT22;7869;49.264;8.596;2022-10-16T06:54:29;15.50;99.90
15535;DHT22;7869;49.264;8.596;2022-10-16T06:56:54;15.60;99.90
15535;DHT22;7869;49.264;8.596;2022-10-16T06:59:20;15.70;99.90
15535;DHT22;7869;49.264;8.596;2022-10-16T07:01:46;15.70;99.90
15535;DHT22;7869;49.264;8.596;2022-10-16T07:04:12;15.80;99.90
15535;DHT22;7869;49.264;8.596;2022-10-16T07:06:38;15.80;99.90
15535;DHT22;7869;49.264;8.596;2022-10-16T07:09:05;15.90;99.90
15535;DHT22;7869;49.264;8.596;2022-10-16T07:11:31;15.90;99.90
15535;DHT22;7869;49.264;8.596;2022-10-16T07:13:57;15.90;99.90
15535;DHT22;7869;49.264;8.596;2022-10-16T07:16:26;16.00;99.90
15535;DHT22;7869;49.264;8.596;2022-10-16T07:18:57;16.00;99.90
15535;DHT22;7869;49.264;8.596;2022-10-16T07:21:28;16.10;99.90
15535;DHT22;7869;49.264;8.596;2022-10-16T07:23:59;16.20;99.90
15535;DHT22;7869;49.264;8.596;2022-10-16T07:26:26;16.20;99.90
15535;DHT22;7869;49.264;8.596;2022-10-16T07:28:52;16.30;99.90
15535;DHT22;7869;49.264;8.596;2022-10-16T07:31:19;16.40;99.90
15535;DHT22;7869;49.264;8.596;2022-10-16T07:33:45;16.50;99.90
15535;DHT22;7869;49.264;8.596;2022-10-16T07:36:12;16.50;99.90
15535;DHT22;7869;49.264;8.596;2022-10-16T07:38:38;16.60;99.90
15535;DHT22;7869;49.264;8.596;2022-10-16T07:41:06;16.70;99.90
15535;DHT22;7869;49.264;8.596;2022-10-16T07:43:33;16.70;99.90
15535;DHT22;7869;49.264;8.596;2022-10-16T07:45:59;16.80;99.90
15535;DHT22;7869;49.264;8.596;2022-10-16T07:48:28;16.80;99.90
15535;DHT22;7869;49.264;8.596;2022-10-16T07:51:03;16.90;99.90
15535;DHT22;7869;49.264;8.596;2022-10-16T07:53:29;17.00;99.90
15535;DHT22;7869;49.264;8.596;2022-10-16T07:56:00;17.00;99.90
15535;DHT22;7869;49.264;8.596;2022-10-16T07:58:26;17.10;99.90
15535;DHT22;7869;49.264;8.596;2022-10-16T08:00:52;17.10;99.90
15535;DHT22;7869;49.264;8.596;2022-10-16T08:03:17;17.10;99.90
15535;DHT22;7869;49.264;8.596;2022-10-16T08:05:43;17.10;99.90
15535;DHT22;7869;49.264;8.596;2022-10-16T08:08:12;17.20;99.90
15535;DHT22;7869;49.264;8.596;2022-10-16T08:10:38;17.30;99.90
15535;DHT22;7869;49.264;8.596;2022-10-16T08:13:04;17.40;99.90
15535;DHT22;7869;49.264;8.596;2022-10-16T08:15:29;17.50;99.90
15535;DHT22;7869;49.264;8.596;2022-10-16T08:18:00;17.50;99.90
15535;DHT22;7869;49.264;8.596;2022-10-16T08:20:27;17.60;99.90
15535;DHT22;7869;49.264;8.596;2022-10-16T08:22:53;17.50;99.90
15535;DHT22;7869;49.264;8.596;2022-10-16T08:25:20;17.50;99.90
15535;DHT22;7869;49.264;8.596;2022-10-16T08:27:45;17.50;99.90
15535;DHT22;7869;49.264;8.596;2022-10-16T08:30:13;17.40;99.90
15535;DHT22;7869;49.264;8.596;2022-10-16T08:32:38;17.50;99.90
15535;DHT22;7869;49.264;8.596;2022-10-16T08:35:04;17.50;99.90
15535;DHT22;7869;49.264;8.596;2022-10-16T08:37:31;17.60;99.90
15535;DHT22;7869;49.264;8.596;2022-10-16T08:39:56;17.70;99.90
15535;DHT22;7869;49.264;8.596;2022-10-16T08:48:32;17.90;99.90
15535;DHT22;7869;49.264;8.596;2022-10-16T08:51:02;18.00;99.90
15535;DHT22;7869;49.264;8.596;2022-10-16T08:53:57;18.10;99.90
15535;DHT22;7869;49.264;8.596;2022-10-16T08:56:24;18.20;99.90
15535;DHT22;7869;49.264;8.596;2022-10-16T08:58:51;18.30;99.90
15535;DHT22;7869;49.264;8.596;2022-10-16T09:01:20;18.40;99.90
15535;DHT22;7869;49.264;8.596;2022-10-16T09:06:22;18.60;99.90
15535;DHT22;7869;49.264;8.596;2022-10-16T09:09:12;18.70;99.90
15535;DHT22;7869;49.264;8.596;2022-10-16T09:11:57;18.80;99.90
15535;DHT22;7869;49.264;8.596;2022-10-16T09:17:00;18.80;99.90
15535;DHT22;7869;49.264;8.596;2022-10-16T09:19:37;18.90;99.90
15535;DHT22;7869;49.264;8.596;2022-10-16T09:22:14;18.90;99.90
15535;DHT22;7869;49.264;8.596;2022-10-16T09:24:41;18.90;99.90
15535;DHT22;7869;49.264;8.596;2022-10-16T09:27:10;18.90;99.90
15535;DHT22;7869;49.264;8.596;2022-10-16T09:29:36;19.00;99.90
15535;DHT22;7869;49.264;8.596;2022-10-16T09:32:17;19.00;99.90
15535;DHT22;7869;49.264;8.596;2022-10-16T09:34:49;19.10;99.90
15535;DHT22;7869;49.264;8.596;2022-10-16T09:37:18;19.10;99.90
15535;DHT22;7869;49.264;8.596;2022-10-16T09:39:54;19.30;99.90
15535;DHT22;7869;49.264;8.596;2022-10-16T09:42:38;19.40;99.90
15535;DHT22;7869;49.264;8.596;2022-10-16T09:45:04;19.50;99.90
15535;DHT22;7869;49.264;8.596;2022-10-16T09:47:31;19.50;99.90
15535;DHT22;7869;49.264;8.596;2022-10-16T09:50:20;19.50;99.90
15535;DHT22;7869;49.264;8.596;2022-10-16T09:52:47;19.70;99.90
15535;DHT22;7869;49.264;8.596;2022-10-16T09:55:17;19.40;99.90
15535;DHT22;7869;49.264;8.596;2022-10-16T09:57:53;19.40;99.90
15535;DHT22;7869;49.264;8.596;2022-10-16T10:00:20;19.60;99.90
15535;DHT22;7869;49.264;8.596;2022-10-16T10:02:46;19.80;99.90
15535;DHT22;7869;49.264;8.596;2022-10-16T10:05:27;20.00;99.90
15535;DHT22;7869;49.264;8.596;2022-10-16T10:08:01;20.10;99.90
15535;DHT22;7869;49.264;8.596;2022-10-16T10:10:41;20.20;99.90
15535;DHT22;7869;49.264;8.596;2022-10-16T10:13:21;20.40;99.90
15535;DHT22;7869;49.264;8.596;2022-10-16T10:15:48;20.50;99.90
15535;DHT22;7869;49.264;8.596;2022-10-16T10:18:21;20.70;99.90
15535;DHT22;7869;49.264;8.596;2022-10-16T10:20:59;20.80;99.90
15535;DHT22;7869;49.264;8.596;2022-10-16T10:23:28;20.80;99.90
15535;DHT22;7869;49.264;8.596;2022-10-16T10:28:55;21.00;99.90
15535;DHT22;7869;49.264;8.596;2022-10-16T10:31:39;21.10;99.90
15535;DHT22;7869;49.264;8.596;2022-10-16T10:37:40;21.20;99.90
15535;DHT22;7869;49.264;8.596;2022-10-16T10:45:50;20.90;99.90
15535;DHT22;7869;49.264;8.596;2022-10-16T10:50:59;21.10;99.90
15535;DHT22;7869;49.264;8.596;2022-10-16T10:53:52;21.30;99.90
15535;DHT22;7869;49.264;8.596;2022-10-16T10:56:45;21.20;99.90
15535;DHT22;7869;49.264;8.596;2022-10-16T11:02:04;21.40;99.90
15535;DHT22;7869;49.264;8.596;2022-10-16T11:07:32;21.50;99.90
15535;DHT22;7869;49.264;8.596;2022-10-16T11:10:13;21.50;99.90
15535;DHT22;7869;49.264;8.596;2022-10-16T11:12:45;21.60;99.90
15535;DHT22;7869;49.264;8.596;2022-10-16T11:15:15;21.70;99.90
15535;DHT22;7869;49.264;8.596;2022-10-16T11:17:48;21.80;99.90
15535;DHT22;7869;49.264;8.596;2022-10-16T11:20:20;22.00;99.90
15535;DHT22;7869;49.264;8.596;2022-10-16T11:25:32;22.00;99.90
15535;DHT22;7869;49.264;8.596;2022-10-16T11:30:55;21.80;99.90
15535;DHT22;7869;49.264;8.596;2022-10-16T11:33:42;21.70;99.90
15535;DHT22;7869;49.264;8.596;2022-10-16T11:36:32;21.70;99.90
15535;DHT22;7869;49.264;8.596;2022-10-16T11:41:51;21.60;99.90
15535;DHT22;7869;49.264;8.596;2022-10-16T11:47:37;21.60;99.90
15535;DHT22;7869;49.264;8.596;2022-10-16T11:53:12;21.80;99.90
15535;DHT22;7869;49.264;8.596;2022-10-16T11:55:40;21.90;99.90
15535;DHT22;7869;49.264;8.596;2022-10-16T11:58:17;22.10;99.90
15535;DHT22;7869;49.264;8.596;2022-10-16T12:01:25;22.20;99.90
15535;DHT22;7869;49.264;8.596;2022-10-16T12:07:04;22.20;99.90
15535;DHT22;7869;49.264;8.596;2022-10-16T12:09:32;22.30;99.90
15535;DHT22;7869;49.264;8.596;2022-10-16T12:12:00;22.30;99.90
15535;DHT22;7869;49.264;8.596;2022-10-16T12:16:59;22.40;99.90
15535;DHT22;7869;49.264;8.596;2022-10-16T12:19:27;22.40;99.90
15535;DHT22;7869;49.264;8.596;2022-10-16T12:21:59;22.50;99.90
15535;DHT22;7869;49.264;8.596;2022-10-16T12:26:54;22.60;99.90
15535;DHT22;7869;49.264;8.596;2022-10-16T12:29:36;22.80;99.90
15535;DHT22;7869;49.264;8.596;2022-10-16T12:32:05;22.80;99.90
15535;DHT22;7869;49.264;8.596;2022-10-16T12:34:44;22.90;99.90
15535;DHT22;7869;49.264;8.596;2022-10-16T12:37:34;23.00;99.90
15535;DHT22;7869;49.264;8.596;2022-10-16T12:39:59;23.20;99.90
15535;DHT22;7869;49.264;8.596;2022-10-16T12:42:36;23.30;99.90
15535;DHT22;7869;49.264;8.596;2022-10-16T12:45:34;23.40;99.90
15535;DHT22;7869;49.264;8.596;2022-10-16T12:48:04;23.30;99.90
15535;DHT22;7869;49.264;8.596;2022-10-16T12:50:43;23.20;99.90
15535;DHT22;7869;49.264;8.596;2022-10-16T12:53:23;23.10;99.90
15535;DHT22;7869;49.264;8.596;2022-10-16T12:56:04;23.10;99.90
15535;DHT22;7869;49.264;8.596;2022-10-16T13:04:47;22.70;99.90
15535;DHT22;7869;49.264;8.596;2022-10-16T13:07:44;22.60;99.90
15535;DHT22;7869;49.264;8.596;2022-10-16T13:10:33;22.60;99.90
15535;DHT22;7869;49.264;8.596;2022-10-16T13:18:16;22.30;99.90
15535;DHT22;7869;49.264;8.596;2022-10-16T13:21:07;22.20;99.90
15535;DHT22;7869;49.264;8.596;2022-10-16T13:24:00;22.20;99.90
15535;DHT22;7869;49.264;8.596;2022-10-16T13:26:49;22.10;99.90
15535;DHT22;7869;49.264;8.596;2022-10-16T13:29:18;22.00;99.90
15535;DHT22;7869;49.264;8.596;2022-10-16T13:31:45;21.90;99.90
15535;DHT22;7869;49.264;8.596;2022-10-16T13:34:17;21.70;99.90
15535;DHT22;7869;49.264;8.596;2022-10-16T13:36:48;21.50;99.90
15535;DHT22;7869;49.264;8.596;2022-10-16T13:39:28;21.40;99.90
15535;DHT22;7869;49.264;8.596;2022-10-16T13:44:26;21.30;99.90
15535;DHT22;7869;49.264;8.596;2022-10-16T13:46:59;21.20;99.90
15535;DHT22;7869;49.264;8.596;2022-10-16T13:49:25;21.20;99.90
15535;DHT22;7869;49.264;8.596;2022-10-16T13:51:58;21.20;99.90
15535;DHT22;7869;49.264;8.596;2022-10-16T13:54:27;21.10;99.90
15535;DHT22;7869;49.264;8.596;2022-10-16T13:56:54;21.10;99.90
15535;DHT22;7869;49.264;8.596;2022-10-16T13:59:25;21.10;99.90
15535;DHT22;7869;49.264;8.596;2022-10-16T14:01:54;21.10;99.90
15535;DHT22;7869;49.264;8.596;2022-10-16T14:04:21;21.00;99.90
15535;DHT22;7869;49.264;8.596;2022-10-16T14:06:50;20.90;99.90
15535;DHT22;7869;49.264;8.596;2022-10-16T14:09:25;20.90;99.90
15535;DHT22;7869;49.264;8.596;2022-10-16T14:12:07;20.80;99.90
15535;DHT22;7869;49.264;8.596;2022-10-16T14:14:44;20.80;99.90
15535;DHT22;7869;49.264;8.596;2022-10-16T14:17:15;20.70;99.90
15535;DHT22;7869;49.264;8.596;2022-10-16T14:19:45;20.60;99.90
15535;DHT22;7869;49.264;8.596;2022-10-16T14:25:01;20.60;99.90
15535;DHT22;7869;49.264;8.596;2022-10-16T14:27:33;20.60;99.90
15535;DHT22;7869;49.264;8.596;2022-10-16T14:30:18;20.50;99.90
15535;DHT22;7869;49.264;8.596;2022-10-16T14:33:23;20.50;99.90
15535;DHT22;7869;49.264;8.596;2022-10-16T14:36:11;20.50;99.90
15535;DHT22;7869;49.264;8.596;2022-10-16T14:38:43;20.50;99.90
15535;DHT22;7869;49.264;8.596;2022-10-16T14:41:13;20.50;99.90
15535;DHT22;7869;49.264;8.596;2022-10-16T14:43:43;20.40;99.90
15535;DHT22;7869;49.264;8.596;2022-10-16T14:46:17;20.40;99.90
15535;DHT22;7869;49.264;8.596;2022-10-16T14:48:45;20.40;99.90
15535;DHT22;7869;49.264;8.596;2022-10-16T14:51:15;20.50;99.90
15535;DHT22;7869;49.264;8.596;2022-10-16T14:53:42;20.50;99.90
15535;DHT22;7869;49.264;8.596;2022-10-16T14:56:09;20.60;99.90
15535;DHT22;7869;49.264;8.596;2022-10-16T14:58:39;20.70;99.90
15535;DHT22;7869;49.264;8.596;2022-10-16T15:01:05;20.90;99.90
15535;DHT22;7869;49.264;8.596;2022-10-16T15:03:32;21.10;99.90
15535;DHT22;7869;49.264;8.596;2022-10-16T15:05:57;21.30;99.90
15535;DHT22;7869;49.264;8.596;2022-10-16T15:08:23;21.60;99.90
15535;DHT22;7869;49.264;8.596;2022-10-16T15:10:48;21.80;99.90
15535;DHT22;7869;49.264;8.596;2022-10-16T15:13:14;22.10;99.90
15535;DHT22;7869;49.264;8.596;2022-10-16T15:15:45;22.10;99.90
15535;DHT22;7869;49.264;8.596;2022-10-16T15:18:11;22.10;99.90
15535;DHT22;7869;49.264;8.596;2022-10-16T15:20:38;22.00;99.90
15535;DHT22;7869;49.264;8.596;2022-10-16T15:23:06;21.90;99.90
15535;DHT22;7869;49.264;8.596;2022-10-16T15:25:43;21.70;99.90
15535;DHT22;7869;49.264;8.596;2022-10-16T15:28:09;21.50;99.90
15535;DHT22;7869;49.264;8.596;2022-10-16T15:30:36;21.30;99.90
15535;DHT22;7869;49.264;8.596;2022-10-16T15:33:03;21.10;99.90
15535;DHT22;7869;49.264;8.596;2022-10-16T15:35:30;21.00;99.90
15535;DHT22;7869;49.264;8.596;2022-10-16T15:37:55;20.90;99.90
15535;DHT22;7869;49.264;8.596;2022-10-16T15:40:21;20.80;99.90
15535;DHT22;7869;49.264;8.596;2022-10-16T15:42:48;20.70;99.90
15535;DHT22;7869;49.264;8.596;2022-10-16T15:45:14;20.60;99.90
15535;DHT22;7869;49.264;8.596;2022-10-16T15:47:43;20.50;99.90
15535;DHT22;7869;49.264;8.596;2022-10-16T15:50:11;20.50;99.90
15535;DHT22;7869;49.264;8.596;2022-10-16T15:52:37;20.50;99.90
15535;DHT22;7869;49.264;8.596;2022-10-16T15:55:08;20.50;99.90
15535;DHT22;7869;49.264;8.596;2022-10-16T15:57:35;20.50;99.90
15535;DHT22;7869;49.264;8.596;2022-10-16T16:00:05;20.50;99.90
15535;DHT22;7869;49.264;8.596;2022-10-16T16:02:31;20.50;99.90
15535;DHT22;7869;49.264;8.596;2022-10-16T16:04:57;20.50;99.90
15535;DHT22;7869;49.264;8.596;2022-10-16T16:07:22;20.50;99.90
15535;DHT22;7869;49.264;8.596;2022-10-16T16:09:48;20.40;99.90
15535;DHT22;7869;49.264;8.596;2022-10-16T16:12:13;20.40;99.90
15535;DHT22;7869;49.264;8.596;2022-10-16T16:14:39;20.30;99.90
15535;DHT22;7869;49.264;8.596;2022-10-16T16:17:05;20.30;99.90
15535;DHT22;7869;49.264;8.596;2022-10-16T16:19:30;20.20;99.90
15535;DHT22;7869;49.264;8.596;2022-10-16T16:21:57;20.10;99.90
15535;DHT22;7869;49.264;8.596;2022-10-16T16:24:22;19.90;99.90
15535;DHT22;7869;49.264;8.596;2022-10-16T16:26:48;19.80;99.90
15535;DHT22;7869;49.264;8.596;2022-10-16T16:29:15;19.70;99.90
15535;DHT22;7869;49.264;8.596;2022-10-16T16:31:42;19.60;99.90
15535;DHT22;7869;49.264;8.596;2022-10-16T16:34:08;19.50;99.90
15535;DHT22;7869;49.264;8.596;2022-10-16T16:36:34;19.40;99.90
15535;DHT22;7869;49.264;8.596;2022-10-16T16:39:00;19.30;99.90
15535;DHT22;7869;49.264;8.596;2022-10-16T16:41:28;19.20;99.90
15535;DHT22;7869;49.264;8.596;2022-10-16T16:44:00;19.00;99.90
15535;DHT22;7869;49.264;8.596;2022-10-16T16:46:27;18.80;99.90
15535;DHT22;7869;49.264;8.596;2022-10-16T16:48:52;18.70;99.90
15535;DHT22;7869;49.264;8.596;2022-10-16T16:51:21;18.50;99.90
15535;DHT22;7869;49.264;8.596;2022-10-16T16:53:52;18.40;99.90
15535;DHT22;7869;49.264;8.596;2022-10-16T16:56:18;18.20;99.90
15535;DHT22;7869;49.264;8.596;2022-10-16T16:58:48;18.20;99.90
15535;DHT22;7869;49.264;8.596;2022-10-16T17:01:14;18.10;99.90
15535;DHT22;7869;49.264;8.596;2022-10-16T17:03:43;18.00;99.90
15535;DHT22;7869;49.264;8.596;2022-10-16T17:06:11;18.00;99.90
15535;DHT22;7869;49.264;8.596;2022-10-16T17:08:38;17.90;99.90
15535;DHT22;7869;49.264;8.596;2022-10-16T17:11:04;17.80;99.90
15535;DHT22;7869;49.264;8.596;2022-10-16T17:13:33;17.80;99.90
15535;DHT22;7869;49.264;8.596;2022-10-16T17:16:04;17.70;99.90
15535;DHT22;7869;49.264;8.596;2022-10-16T17:18:30;17.70;99.90